Terminal Aerodrome Forecast
Issued by NWS Oklahoma City, OK

Home | Current Version | Previous Version | Text Only | Print | Product List | Glossary On
Versions: 1 2 3 4 5 6 7 8 9 10 11 12 13 14 15 16
000
FTUS44 KOUN 161120
TAFOUN
TAF
KOUN 161120Z 1612/1712 17014G19KT P6SM SKC
     FM161500 18028G36KT P6SM SCT250
     FM170200 14010KT P6SM SCT120 BKN250=

USA.gov is the U.S. government's official web portal to all federal, state and local government web resources and services.